ESNN/SDL METAR and TAF weather

Enter ICAO airport designator
Station Type Date Time Source
ESNN METAR 2022/11/27 08:20 UTC NOAA

ESNN 270820Z AUTO VRB02KT 8000 FEW007/// OVC022/// M02/M03 Q1028


Station Type Date Time Source
ESNN Decoded METAR 2022/11/27 08:20 UTC NOAA

Sundsvall-Harnosand Flygplats, Sweden (ESNN) 62-32N 017-27E 10M
Nov 27, 2022 - 03:20 AM EST / 2022.11.27 0820 UTC
Wind: Variable at 2 MPH (2 KT):0
Visibility: 4 mile(s):0
Sky conditions: overcast
Temperature: 28 F (-2 C)
Dew Point: 26 F (-3 C)
Relative Humidity: 92%
Pressure (altimeter): 30.36 in. Hg (1028 hPa)
ob: ESNN 270820Z AUTO VRB02KT 8000 FEW007/// OVC022/// M02/M03 Q1028
cycle: 8

Station Type Date Time Source
ESNN TAF 2016/05/29 09:33 UTC NOAA

TAF TAF ESNN 290830Z 2909/3018 07006KT 9999 SCT045
BECMG 2913/2915 14010KT

Example: see airport list